sensor_id;sensor_type;location;lat;lon;timestamp;temperature;humidity
65752;DHT22;52486;51.098;13.770;2023-02-23T00:01:27;24.70;59.50
65752;DHT22;52486;51.098;13.770;2023-02-23T00:03:54;24.30;59.40
65752;DHT22;52486;51.098;13.770;2023-02-23T00:06:22;24.90;51.90
65752;DHT22;52486;51.098;13.770;2023-02-23T00:08:48;24.40;59.30
65752;DHT22;52486;51.098;13.770;2023-02-23T00:11:15;25.10;59.80
65752;DHT22;52486;51.098;13.770;2023-02-23T00:13:42;24.60;59.40
65752;DHT22;52486;51.098;13.770;2023-02-23T00:16:12;24.90;52.60
65752;DHT22;52486;51.098;13.770;2023-02-23T00:18:53;25.00;59.50
65752;DHT22;52486;51.098;13.770;2023-02-23T00:21:24;25.30;59.60
65752;DHT22;52486;51.098;13.770;2023-02-23T00:23:53;25.20;52.80
65752;DHT22;52486;51.098;13.770;2023-02-23T00:26:21;25.20;59.40
65752;DHT22;52486;51.098;13.770;2023-02-23T00:28:48;25.10;52.50
65752;DHT22;52486;51.098;13.770;2023-02-23T00:31:16;24.80;52.40
65752;DHT22;52486;51.098;13.770;2023-02-23T00:33:42;25.00;55.40
65752;DHT22;52486;51.098;13.770;2023-02-23T00:36:10;24.60;59.10
65752;DHT22;52486;51.098;13.770;2023-02-23T00:38:37;25.00;59.30
65752;DHT22;52486;51.098;13.770;2023-02-23T00:41:09;24.70;59.40
65752;DHT22;52486;51.098;13.770;2023-02-23T00:43:37;26.20;60.70
65752;DHT22;52486;51.098;13.770;2023-02-23T00:46:03;25.00;52.50
65752;DHT22;52486;51.098;13.770;2023-02-23T00:48:34;24.50;59.00
65752;DHT22;52486;51.098;13.770;2023-02-23T00:51:04;25.60;60.50
65752;DHT22;52486;51.098;13.770;2023-02-23T00:53:30;25.10;52.50
65752;DHT22;52486;51.098;13.770;2023-02-23T00:58:23;24.80;55.80
65752;DHT22;52486;51.098;13.770;2023-02-23T01:00:49;26.30;53.70
65752;DHT22;52486;51.098;13.770;2023-02-23T01:03:14;25.10;52.60
65752;DHT22;52486;51.098;13.770;2023-02-23T01:05:40;24.80;59.20
65752;DHT22;52486;51.098;13.770;2023-02-23T01:10:41;24.90;49.70
65752;DHT22;52486;51.098;13.770;2023-02-23T01:13:09;24.80;52.60
65752;DHT22;52486;51.098;13.770;2023-02-23T01:15:39;24.50;59.00
65752;DHT22;52486;51.098;13.770;2023-02-23T01:18:05;24.80;59.60
65752;DHT22;52486;51.098;13.770;2023-02-23T01:20:33;25.70;53.00
65752;DHT22;52486;51.098;13.770;2023-02-23T01:23:01;24.40;59.50
65752;DHT22;52486;51.098;13.770;2023-02-23T01:25:27;26.00;53.20
65752;DHT22;52486;51.098;13.770;2023-02-23T01:27:56;25.00;59.40
65752;DHT22;52486;51.098;13.770;2023-02-23T01:30:21;24.60;52.40
65752;DHT22;52486;51.098;13.770;2023-02-23T01:32:47;24.70;59.20
65752;DHT22;52486;51.098;13.770;2023-02-23T01:35:13;25.20;59.60
65752;DHT22;52486;51.098;13.770;2023-02-23T01:37:41;24.80;54.00
65752;DHT22;52486;51.098;13.770;2023-02-23T01:40:13;26.20;60.50
65752;DHT22;52486;51.098;13.770;2023-02-23T01:42:57;24.70;59.10
65752;DHT22;52486;51.098;13.770;2023-02-23T01:45:33;24.90;50.30
65752;DHT22;52486;51.098;13.770;2023-02-23T01:48:08;24.00;59.10
65752;DHT22;52486;51.098;13.770;2023-02-23T01:53:30;25.00;59.30
65752;DHT22;52486;51.098;13.770;2023-02-23T01:56:05;25.00;51.50
65752;DHT22;52486;51.098;13.770;2023-02-23T01:58:37;24.50;59.10
65752;DHT22;52486;51.098;13.770;2023-02-23T02:01:04;24.50;59.10
65752;DHT22;52486;51.098;13.770;2023-02-23T02:03:39;25.70;52.70
65752;DHT22;52486;51.098;13.770;2023-02-23T02:06:07;25.50;59.40
65752;DHT22;52486;51.098;13.770;2023-02-23T02:08:36;24.10;59.00
65752;DHT22;52486;51.098;13.770;2023-02-23T02:11:15;26.00;60.10
65752;DHT22;52486;51.098;13.770;2023-02-23T02:28:21;25.10;59.50
65752;DHT22;52486;51.098;13.770;2023-02-23T02:34:00;24.80;49.40
65752;DHT22;52486;51.098;13.770;2023-02-23T02:37:09;24.90;50.60
65752;DHT22;52486;51.098;13.770;2023-02-23T02:40:00;24.40;59.30
65752;DHT22;52486;51.098;13.770;2023-02-23T02:43:15;25.20;59.80
65752;DHT22;52486;51.098;13.770;2023-02-23T02:46:01;24.50;58.40
65752;DHT22;52486;51.098;13.770;2023-02-23T02:51:41;24.80;59.10
65752;DHT22;52486;51.098;13.770;2023-02-23T02:54:29;24.30;58.80
65752;DHT22;52486;51.098;13.770;2023-02-23T02:56:56;24.30;58.90
65752;DHT22;52486;51.098;13.770;2023-02-23T02:59:23;24.40;58.90
65752;DHT22;52486;51.098;13.770;2023-02-23T03:02:18;24.90;51.40
65752;DHT22;52486;51.098;13.770;2023-02-23T03:05:14;25.00;50.40
65752;DHT22;52486;51.098;13.770;2023-02-23T03:11:08;24.20;59.10
65752;DHT22;52486;51.098;13.770;2023-02-23T03:26:41;24.00;59.10
65752;DHT22;52486;51.098;13.770;2023-02-23T03:29:19;24.50;58.80
65752;DHT22;52486;51.098;13.770;2023-02-23T03:38:30;24.40;60.00
65752;DHT22;52486;51.098;13.770;2023-02-23T03:41:17;24.90;59.00
65752;DHT22;52486;51.098;13.770;2023-02-23T03:44:12;24.40;59.10
65752;DHT22;52486;51.098;13.770;2023-02-23T03:46:59;24.80;51.40
65752;DHT22;52486;51.098;13.770;2023-02-23T03:49:45;24.90;59.20
65752;DHT22;52486;51.098;13.770;2023-02-23T03:52:39;24.80;49.40
65752;DHT22;52486;51.098;13.770;2023-02-23T03:55:27;24.90;59.30
65752;DHT22;52486;51.098;13.770;2023-02-23T03:58:17;24.90;51.50
65752;DHT22;52486;51.098;13.770;2023-02-23T04:01:06;24.50;59.00
65752;DHT22;52486;51.098;13.770;2023-02-23T04:03:52;24.80;59.30
65752;DHT22;52486;51.098;13.770;2023-02-23T04:06:42;24.30;58.70
65752;DHT22;52486;51.098;13.770;2023-02-23T04:09:26;24.80;59.10
65752;DHT22;52486;51.098;13.770;2023-02-23T04:12:20;24.60;59.00
65752;DHT22;52486;51.098;13.770;2023-02-23T04:15:34;25.30;55.80
65752;DHT22;52486;51.098;13.770;2023-02-23T04:18:05;24.90;58.90
65752;DHT22;52486;51.098;13.770;2023-02-23T04:20:32;24.70;52.00
65752;DHT22;52486;51.098;13.770;2023-02-23T04:22:57;24.20;58.50
65752;DHT22;52486;51.098;13.770;2023-02-23T04:25:23;25.00;59.00
65752;DHT22;52486;51.098;13.770;2023-02-23T04:27:49;25.40;59.30
65752;DHT22;52486;51.098;13.770;2023-02-23T04:30:15;26.20;60.30
65752;DHT22;52486;51.098;13.770;2023-02-23T04:32:41;25.10;58.90
65752;DHT22;52486;51.098;13.770;2023-02-23T04:35:08;26.20;52.50
65752;DHT22;52486;51.098;13.770;2023-02-23T04:37:34;25.60;59.30
65752;DHT22;52486;51.098;13.770;2023-02-23T04:40:00;24.60;58.70
65752;DHT22;52486;51.098;13.770;2023-02-23T04:42:25;25.50;52.30
65752;DHT22;52486;51.098;13.770;2023-02-23T04:44:51;25.10;58.90
65752;DHT22;52486;51.098;13.770;2023-02-23T04:47:17;25.00;51.90
65752;DHT22;52486;51.098;13.770;2023-02-23T04:49:43;24.80;58.80
65752;DHT22;52486;51.098;13.770;2023-02-23T04:52:09;25.40;59.50
65752;DHT22;52486;51.098;13.770;2023-02-23T04:54:39;25.50;59.30
65752;DHT22;52486;51.098;13.770;2023-02-23T04:57:05;24.80;59.40
65752;DHT22;52486;51.098;13.770;2023-02-23T04:59:31;24.60;58.60
65752;DHT22;52486;51.098;13.770;2023-02-23T05:01:57;25.20;58.90
65752;DHT22;52486;51.098;13.770;2023-02-23T05:04:23;24.90;58.70
65752;DHT22;52486;51.098;13.770;2023-02-23T05:06:49;24.70;58.80
65752;DHT22;52486;51.098;13.770;2023-02-23T05:09:15;24.40;58.80
65752;DHT22;52486;51.098;13.770;2023-02-23T05:11:41;25.00;52.00
65752;DHT22;52486;51.098;13.770;2023-02-23T05:14:07;25.90;52.60
65752;DHT22;52486;51.098;13.770;2023-02-23T05:16:33;25.10;59.30
65752;DHT22;52486;51.098;13.770;2023-02-23T05:18:59;25.60;59.50
65752;DHT22;52486;51.098;13.770;2023-02-23T05:21:24;24.80;58.90
65752;DHT22;52486;51.098;13.770;2023-02-23T05:23:50;24.90;58.90
65752;DHT22;52486;51.098;13.770;2023-02-23T05:26:16;25.50;59.20
65752;DHT22;52486;51.098;13.770;2023-02-23T05:28:43;24.30;59.00
65752;DHT22;52486;51.098;13.770;2023-02-23T05:31:09;24.40;58.80
65752;DHT22;52486;51.098;13.770;2023-02-23T05:33:36;25.30;59.10
65752;DHT22;52486;51.098;13.770;2023-02-23T05:36:09;24.40;58.60
65752;DHT22;52486;51.098;13.770;2023-02-23T05:38:36;24.40;58.50
65752;DHT22;52486;51.098;13.770;2023-02-23T05:41:06;26.10;60.40
65752;DHT22;52486;51.098;13.770;2023-02-23T05:43:32;25.80;52.60
65752;DHT22;52486;51.098;13.770;2023-02-23T05:48:26;25.00;58.80
65752;DHT22;52486;51.098;13.770;2023-02-23T05:50:51;24.40;58.60
65752;DHT22;52486;51.098;13.770;2023-02-23T05:58:09;26.50;60.30
65752;DHT22;52486;51.098;13.770;2023-02-23T06:00:35;25.20;58.80
65752;DHT22;52486;51.098;13.770;2023-02-23T06:03:00;25.70;59.60
65752;DHT22;52486;51.098;13.770;2023-02-23T06:05:26;25.50;59.30
65752;DHT22;52486;51.098;13.770;2023-02-23T06:07:52;25.30;59.10
65752;DHT22;52486;51.098;13.770;2023-02-23T06:10:18;25.80;52.40
65752;DHT22;52486;51.098;13.770;2023-02-23T06:12:44;24.50;58.50
65752;DHT22;52486;51.098;13.770;2023-02-23T06:17:36;23.80;58.80
65752;DHT22;52486;51.098;13.770;2023-02-23T06:20:03;24.60;58.80
65752;DHT22;52486;51.098;13.770;2023-02-23T06:22:29;25.60;59.30
65752;DHT22;52486;51.098;13.770;2023-02-23T06:24:55;25.10;58.90
65752;DHT22;52486;51.098;13.770;2023-02-23T06:27:21;24.50;58.60
65752;DHT22;52486;51.098;13.770;2023-02-23T06:29:47;25.80;59.60
65752;DHT22;52486;51.098;13.770;2023-02-23T06:32:12;24.20;58.60
65752;DHT22;52486;51.098;13.770;2023-02-23T06:34:38;25.40;59.10
65752;DHT22;52486;51.098;13.770;2023-02-23T06:37:04;24.50;58.60
65752;DHT22;52486;51.098;13.770;2023-02-23T06:39:31;24.60;58.80
65752;DHT22;52486;51.098;13.770;2023-02-23T06:41:56;25.00;58.90
65752;DHT22;52486;51.098;13.770;2023-02-23T06:44:22;25.00;58.70
65752;DHT22;52486;51.098;13.770;2023-02-23T06:46:48;24.50;58.80
65752;DHT22;52486;51.098;13.770;2023-02-23T06:49:13;24.60;56.10
65752;DHT22;52486;51.098;13.770;2023-02-23T06:51:39;25.20;59.50
65752;DHT22;52486;51.098;13.770;2023-02-23T06:54:05;24.90;59.40
65752;DHT22;52486;51.098;13.770;2023-02-23T06:56:30;24.60;59.20
65752;DHT22;52486;51.098;13.770;2023-02-23T06:58:56;24.50;59.30
65752;DHT22;52486;51.098;13.770;2023-02-23T07:01:21;24.80;59.30
65752;DHT22;52486;51.098;13.770;2023-02-23T07:03:47;23.90;59.10
65752;DHT22;52486;51.098;13.770;2023-02-23T07:06:13;25.20;59.70
65752;DHT22;52486;51.098;13.770;2023-02-23T07:08:38;24.70;59.30
65752;DHT22;52486;51.098;13.770;2023-02-23T07:11:09;24.70;59.40
65752;DHT22;52486;51.098;13.770;2023-02-23T07:13:35;25.20;53.00
65752;DHT22;52486;51.098;13.770;2023-02-23T07:16:00;24.10;59.40
65752;DHT22;52486;51.098;13.770;2023-02-23T07:18:26;24.60;51.00
65752;DHT22;52486;51.098;13.770;2023-02-23T07:20:52;23.90;59.00
65752;DHT22;52486;51.098;13.770;2023-02-23T07:23:18;24.20;54.10
65752;DHT22;52486;51.098;13.770;2023-02-23T07:25:44;24.10;56.90
65752;DHT22;52486;51.098;13.770;2023-02-23T07:28:10;24.50;59.40
65752;DHT22;52486;51.098;13.770;2023-02-23T07:30:39;24.30;58.80
65752;DHT22;52486;51.098;13.770;2023-02-23T07:33:04;23.90;58.60
65752;DHT22;52486;51.098;13.770;2023-02-23T07:35:30;23.90;53.30
65752;DHT22;52486;51.098;13.770;2023-02-23T07:40:22;24.80;59.30
65752;DHT22;52486;51.098;13.770;2023-02-23T07:42:47;24.60;58.90
65752;DHT22;52486;51.098;13.770;2023-02-23T07:45:13;24.20;58.60
65752;DHT22;52486;51.098;13.770;2023-02-23T07:47:39;24.10;58.20
65752;DHT22;52486;51.098;13.770;2023-02-23T07:50:05;23.80;58.00
65752;DHT22;52486;51.098;13.770;2023-02-23T07:52:38;24.50;58.30
65752;DHT22;52486;51.098;13.770;2023-02-23T07:55:05;24.00;58.20
65752;DHT22;52486;51.098;13.770;2023-02-23T07:57:31;24.40;58.90
65752;DHT22;52486;51.098;13.770;2023-02-23T07:59:57;23.80;58.30
65752;DHT22;52486;51.098;13.770;2023-02-23T08:04:49;23.50;58.40
65752;DHT22;52486;51.098;13.770;2023-02-23T08:07:15;23.60;58.50
65752;DHT22;52486;51.098;13.770;2023-02-23T08:09:41;24.50;59.00
65752;DHT22;52486;51.098;13.770;2023-02-23T08:12:06;23.60;58.80
65752;DHT22;52486;51.098;13.770;2023-02-23T08:14:32;23.20;58.80
65752;DHT22;52486;51.098;13.770;2023-02-23T08:16:58;24.10;59.00
65752;DHT22;52486;51.098;13.770;2023-02-23T08:19:26;23.80;58.40
65752;DHT22;52486;51.098;13.770;2023-02-23T08:24:18;23.70;58.20
65752;DHT22;52486;51.098;13.770;2023-02-23T08:26:44;23.60;58.20
65752;DHT22;52486;51.098;13.770;2023-02-23T08:31:35;23.60;59.00
65752;DHT22;52486;51.098;13.770;2023-02-23T08:34:01;23.70;59.80
65752;DHT22;52486;51.098;13.770;2023-02-23T08:36:27;23.90;60.10
65752;DHT22;52486;51.098;13.770;2023-02-23T08:38:53;23.30;60.30
65752;DHT22;52486;51.098;13.770;2023-02-23T08:41:19;23.30;60.50
65752;DHT22;52486;51.098;13.770;2023-02-23T08:43:45;23.10;60.70
65752;DHT22;52486;51.098;13.770;2023-02-23T08:46:12;23.20;60.80
65752;DHT22;52486;51.098;13.770;2023-02-23T08:48:38;22.70;59.60
65752;DHT22;52486;51.098;13.770;2023-02-23T08:51:06;22.40;60.80
65752;DHT22;52486;51.098;13.770;2023-02-23T08:53:32;22.70;61.50
65752;DHT22;52486;51.098;13.770;2023-02-23T08:55:59;22.90;61.50
65752;DHT22;52486;51.098;13.770;2023-02-23T08:58:26;22.50;59.60
65752;DHT22;52486;51.098;13.770;2023-02-23T09:03:19;22.90;62.10
65752;DHT22;52486;51.098;13.770;2023-02-23T09:05:45;22.60;61.80
65752;DHT22;52486;51.098;13.770;2023-02-23T09:08:13;23.00;62.10
65752;DHT22;52486;51.098;13.770;2023-02-23T09:10:39;22.80;62.30
65752;DHT22;52486;51.098;13.770;2023-02-23T09:13:05;22.90;61.90
65752;DHT22;52486;51.098;13.770;2023-02-23T09:15:31;23.80;62.40
65752;DHT22;52486;51.098;13.770;2023-02-23T09:18:00;22.90;52.10
65752;DHT22;52486;51.098;13.770;2023-02-23T09:25:20;23.90;61.80
65752;DHT22;52486;51.098;13.770;2023-02-23T09:30:14;24.10;61.90
65752;DHT22;52486;51.098;13.770;2023-02-23T09:32:46;23.20;61.30
65752;DHT22;52486;51.098;13.770;2023-02-23T09:35:13;23.40;61.40
65752;DHT22;52486;51.098;13.770;2023-02-23T09:37:46;24.10;53.70
65752;DHT22;52486;51.098;13.770;2023-02-23T09:40:16;23.90;52.40
65752;DHT22;52486;51.098;13.770;2023-02-23T09:42:52;23.40;61.00
65752;DHT22;52486;51.098;13.770;2023-02-23T09:45:50;23.50;61.00
65752;DHT22;52486;51.098;13.770;2023-02-23T09:48:24;24.00;61.20
65752;DHT22;52486;51.098;13.770;2023-02-23T09:50:56;24.30;51.60
65752;DHT22;52486;51.098;13.770;2023-02-23T09:56:14;24.20;61.10
65752;DHT22;52486;51.098;13.770;2023-02-23T09:58:42;24.50;61.20
65752;DHT22;52486;51.098;13.770;2023-02-23T10:04:25;24.20;58.90
65752;DHT22;52486;51.098;13.770;2023-02-23T10:07:33;24.00;60.70
65752;DHT22;52486;51.098;13.770;2023-02-23T10:13:07;25.60;61.50
65752;DHT22;52486;51.098;13.770;2023-02-23T10:15:46;24.10;60.30
65752;DHT22;52486;51.098;13.770;2023-02-23T10:18:39;25.00;50.60
65752;DHT22;52486;51.098;13.770;2023-02-23T10:24:10;25.90;54.20
65752;DHT22;52486;51.098;13.770;2023-02-23T10:26:44;24.90;50.30
65752;DHT22;52486;51.098;13.770;2023-02-23T10:32:21;24.70;59.00
65752;DHT22;52486;51.098;13.770;2023-02-23T10:34:53;25.00;58.70
65752;DHT22;52486;51.098;13.770;2023-02-23T10:37:19;24.60;58.70
65752;DHT22;52486;51.098;13.770;2023-02-23T10:39:45;25.80;59.40
65752;DHT22;52486;51.098;13.770;2023-02-23T10:42:18;25.00;58.80
65752;DHT22;52486;51.098;13.770;2023-02-23T10:44:46;25.20;58.80
65752;DHT22;52486;51.098;13.770;2023-02-23T10:47:20;25.00;58.80
65752;DHT22;52486;51.098;13.770;2023-02-23T10:49:48;25.90;59.60
65752;DHT22;52486;51.098;13.770;2023-02-23T10:52:18;25.30;59.20
65752;DHT22;52486;51.098;13.770;2023-02-23T10:54:47;25.30;59.20
65752;DHT22;52486;51.098;13.770;2023-02-23T10:57:26;25.10;59.00
65752;DHT22;52486;51.098;13.770;2023-02-23T11:02:42;25.60;50.50
65752;DHT22;52486;51.098;13.770;2023-02-23T11:08:24;26.60;60.30
65752;DHT22;52486;51.098;13.770;2023-02-23T11:13:48;25.90;59.60
65752;DHT22;52486;51.098;13.770;2023-02-23T11:16:30;24.70;59.20
65752;DHT22;52486;51.098;13.770;2023-02-23T11:19:04;25.60;59.50
65752;DHT22;52486;51.098;13.770;2023-02-23T11:21:36;26.90;60.60
65752;DHT22;52486;51.098;13.770;2023-02-23T11:24:27;25.00;59.20
65752;DHT22;52486;51.098;13.770;2023-02-23T11:26:58;26.20;59.50
65752;DHT22;52486;51.098;13.770;2023-02-23T11:29:39;25.30;58.90
65752;DHT22;52486;51.098;13.770;2023-02-23T11:32:19;25.50;59.60
65752;DHT22;52486;51.098;13.770;2023-02-23T11:34:46;25.50;59.40
65752;DHT22;52486;51.098;13.770;2023-02-23T11:42:21;26.10;60.50
65752;DHT22;52486;51.098;13.770;2023-02-23T11:45:14;25.00;61.00
65752;DHT22;52486;51.098;13.770;2023-02-23T11:47:44;26.00;60.90
65752;DHT22;52486;51.098;13.770;2023-02-23T11:50:27;26.20;54.50
65752;DHT22;52486;51.098;13.770;2023-02-23T11:53:03;26.20;57.00
65752;DHT22;52486;51.098;13.770;2023-02-23T11:55:31;26.80;57.40
65752;DHT22;52486;51.098;13.770;2023-02-23T12:01:07;27.70;61.20
65752;DHT22;52486;51.098;13.770;2023-02-23T12:03:50;26.40;52.80
65752;DHT22;52486;51.098;13.770;2023-02-23T12:06:34;27.10;57.20
65752;DHT22;52486;51.098;13.770;2023-02-23T12:11:36;26.40;57.50
65752;DHT22;52486;51.098;13.770;2023-02-23T12:16:56;25.70;63.60
65752;DHT22;52486;51.098;13.770;2023-02-23T12:19:53;25.90;57.10
65752;DHT22;52486;51.098;13.770;2023-02-23T12:22:34;25.40;55.50
65752;DHT22;52486;51.098;13.770;2023-02-23T12:25:10;24.70;62.80
65752;DHT22;52486;51.098;13.770;2023-02-23T12:27:42;26.00;63.90
65752;DHT22;52486;51.098;13.770;2023-02-23T12:30:12;25.00;63.80
65752;DHT22;52486;51.098;13.770;2023-02-23T12:32:50;24.70;64.00
65752;DHT22;52486;51.098;13.770;2023-02-23T12:37:57;24.90;64.30
65752;DHT22;52486;51.098;13.770;2023-02-23T12:40:28;24.80;64.10
65752;DHT22;52486;51.098;13.770;2023-02-23T12:43:20;24.40;64.20
65752;DHT22;52486;51.098;13.770;2023-02-23T12:45:51;24.30;64.00
65752;DHT22;52486;51.098;13.770;2023-02-23T12:48:24;24.30;57.40
65752;DHT22;52486;51.098;13.770;2023-02-23T12:50:55;24.20;63.00
65752;DHT22;52486;51.098;13.770;2023-02-23T13:06:25;24.20;62.40
65752;DHT22;52486;51.098;13.770;2023-02-23T13:14:46;24.60;54.60
65752;DHT22;52486;51.098;13.770;2023-02-23T13:20:03;25.10;60.90
65752;DHT22;52486;51.098;13.770;2023-02-23T13:27:39;24.80;78.70
65752;DHT22;52486;51.098;13.770;2023-02-23T13:53:41;23.30;54.20
65752;DHT22;52486;51.098;13.770;2023-02-23T14:01:25;22.40;63.30
65752;DHT22;52486;51.098;13.770;2023-02-23T14:03:54;22.60;63.80
65752;DHT22;52486;51.098;13.770;2023-02-23T14:06:23;22.30;64.30
65752;DHT22;52486;51.098;13.770;2023-02-23T14:08:53;22.30;57.20
65752;DHT22;52486;51.098;13.770;2023-02-23T14:11:42;21.80;65.50
65752;DHT22;52486;51.098;13.770;2023-02-23T14:14:13;21.60;66.40
65752;DHT22;52486;51.098;13.770;2023-02-23T14:16:41;21.20;67.20
65752;DHT22;52486;51.098;13.770;2023-02-23T14:19:35;21.30;68.50
65752;DHT22;52486;51.098;13.770;2023-02-23T14:22:05;21.10;69.40
65752;DHT22;52486;51.098;13.770;2023-02-23T14:24:34;20.70;61.80
65752;DHT22;52486;51.098;13.770;2023-02-23T14:30:06;20.90;71.30
65752;DHT22;52486;51.098;13.770;2023-02-23T14:32:44;20.60;71.10
65752;DHT22;52486;51.098;13.770;2023-02-23T14:38:09;20.50;62.20
65752;DHT22;52486;51.098;13.770;2023-02-23T14:40:41;20.70;62.00
65752;DHT22;52486;51.098;13.770;2023-02-23T14:43:38;20.20;72.10
65752;DHT22;52486;51.098;13.770;2023-02-23T14:46:11;20.80;72.00
65752;DHT22;52486;51.098;13.770;2023-02-23T14:48:39;20.50;71.40
65752;DHT22;52486;51.098;13.770;2023-02-23T14:51:22;21.20;72.30
65752;DHT22;52486;51.098;13.770;2023-02-23T14:53:48;21.80;73.00
65752;DHT22;52486;51.098;13.770;2023-02-23T14:56:23;21.40;66.30
65752;DHT22;52486;51.098;13.770;2023-02-23T14:58:53;22.00;62.50
65752;DHT22;52486;51.098;13.770;2023-02-23T15:01:38;22.30;66.00
65752;DHT22;52486;51.098;13.770;2023-02-23T15:04:12;22.70;66.20
65752;DHT22;52486;51.098;13.770;2023-02-23T15:06:39;22.80;63.70
65752;DHT22;52486;51.098;13.770;2023-02-23T15:09:15;23.10;68.50
65752;DHT22;52486;51.098;13.770;2023-02-23T15:19:15;24.20;65.00
65752;DHT22;52486;51.098;13.770;2023-02-23T15:21:41;23.60;64.20
65752;DHT22;52486;51.098;13.770;2023-02-23T15:24:13;23.70;65.00
65752;DHT22;52486;51.098;13.770;2023-02-23T15:26:41;23.90;59.70
65752;DHT22;52486;51.098;13.770;2023-02-23T15:29:16;23.80;64.20
65752;DHT22;52486;51.098;13.770;2023-02-23T15:37:10;24.20;59.70
65752;DHT22;52486;51.098;13.770;2023-02-23T15:39:55;23.90;63.80
65752;DHT22;52486;51.098;13.770;2023-02-23T15:42:38;24.10;63.50
65752;DHT22;52486;51.098;13.770;2023-02-23T15:48:04;24.20;64.20
65752;DHT22;52486;51.098;13.770;2023-02-23T15:50:33;25.30;65.20
65752;DHT22;52486;51.098;13.770;2023-02-23T15:55:47;25.20;76.30
65752;DHT22;52486;51.098;13.770;2023-02-23T16:00:43;24.70;59.00
65752;DHT22;52486;51.098;13.770;2023-02-23T16:03:40;24.90;57.30
65752;DHT22;52486;51.098;13.770;2023-02-23T16:11:23;25.40;73.40
65752;DHT22;52486;51.098;13.770;2023-02-23T16:13:50;24.90;63.20
65752;DHT22;52486;51.098;13.770;2023-02-23T16:18:54;25.40;64.80
65752;DHT22;52486;51.098;13.770;2023-02-23T16:21:28;25.30;58.70
65752;DHT22;52486;51.098;13.770;2023-02-23T16:23:59;24.90;63.50
65752;DHT22;52486;51.098;13.770;2023-02-23T16:26:32;26.10;66.20
65752;DHT22;52486;51.098;13.770;2023-02-23T16:29:01;24.50;67.00
65752;DHT22;52486;51.098;13.770;2023-02-23T16:36:48;27.10;63.80
65752;DHT22;52486;51.098;13.770;2023-02-23T16:39:17;25.70;62.10
65752;DHT22;52486;51.098;13.770;2023-02-23T16:41:43;25.50;55.20
65752;DHT22;52486;51.098;13.770;2023-02-23T16:44:16;25.60;60.70
65752;DHT22;52486;51.098;13.770;2023-02-23T16:49:27;25.90;63.20
65752;DHT22;52486;51.098;13.770;2023-02-23T16:51:58;25.70;61.80
65752;DHT22;52486;51.098;13.770;2023-02-23T16:54:24;25.90;58.70
65752;DHT22;52486;51.098;13.770;2023-02-23T16:56:50;25.80;58.60
65752;DHT22;52486;51.098;13.770;2023-02-23T16:59:20;25.60;57.90
65752;DHT22;52486;51.098;13.770;2023-02-23T17:01:47;26.80;66.00
65752;DHT22;52486;51.098;13.770;2023-02-23T17:04:20;25.90;62.60
65752;DHT22;52486;51.098;13.770;2023-02-23T17:06:46;26.00;64.00
65752;DHT22;52486;51.098;13.770;2023-02-23T17:09:22;24.70;63.20
65752;DHT22;52486;51.098;13.770;2023-02-23T17:11:48;25.90;57.40
65752;DHT22;52486;51.098;13.770;2023-02-23T17:14:23;26.60;63.60
65752;DHT22;52486;51.098;13.770;2023-02-23T17:16:50;26.70;57.10
65752;DHT22;52486;51.098;13.770;2023-02-23T17:19:17;25.70;56.40
65752;DHT22;52486;51.098;13.770;2023-02-23T17:21:45;25.80;56.70
65752;DHT22;52486;51.098;13.770;2023-02-23T17:24:10;25.20;62.70
65752;DHT22;52486;51.098;13.770;2023-02-23T17:26:36;25.30;63.90
